Stevensville, Michigan
Current Conditions -  °F | °C
As of 7:53 PM on Monday 22 Dec 2014 (Local Time) from KBEH Reporting Station
Haze Haze  
Wind Chill: 28°   Ceiling: 6500
Heat Index: 37°   Visibility: 5mi
Dew Point: 36°   Wind: 14mph
Humidity: 96%   Direction: 120°ESE
Pressure: 29.75"   Gusts: NA
Location:  42.01°N, 86.52°W
Report Text: KBEH 230053Z AUTO 12012KT 5SM BR BKN065 OVC085 03/02 A2975 RMK AO2 UPE04 SLP080 P0000 T00280022
Loading
Personal Weather Stations






























Interactive Weather Map New forecast layout! Learn more

10-Day Weather Forecast

Advertisements
Track Severe Weather on mobile